Time;durP1;ratioP1;P1;durP2;ratioP2;P2;SDS_P1;SDS_P2;PMS_P1;PMS_P2;Temp;Humidity;BMP_temperature;BMP_pressure;BME280_temperature;BME280_humidity;BME280_pressure;Samples;Min_cycle;Max_cycle;Signal;HPM_P1;HPM_P2
2022/07/14 00:00:04;;;;;;;0.10;0.10;;;;;;;;;;4998128;28;20395;-77
2022/07/14 00:02:30;;;;;;;0.10;0.10;;;;;;;;;;4998734;28;20136;-78
2022/07/14 00:04:56;;;;;;;0.10;0.10;;;;;;;;;;4998974;28;20551;-79
2022/07/14 00:07:22;;;;;;;0.10;0.10;;;;;;;;;;4998863;28;20477;-78
2022/07/14 00:09:48;;;;;;;0.10;0.10;;;;;;;;;;4998950;28;20066;-78
2022/07/14 00:12:14;;;;;;;0.10;0.10;;;;;;;;;;4981362;28;20666;-77
2022/07/14 00:14:40;;;;;;;0.10;0.10;;;;;;;;;;4980376;28;20469;-77
2022/07/14 00:17:06;;;;;;;0.10;0.10;;;;;;;;;;4977898;28;20528;-77
2022/07/14 00:19:32;;;;;;;0.10;0.10;;;;;;;;;;4978724;28;20367;-78
2022/07/14 00:21:58;;;;;;;0.10;0.10;;;;;;;;;;4995828;28;20081;-78
2022/07/14 00:24:24;;;;;;;0.10;0.10;;;;;;;;;;4995694;28;20049;-78
2022/07/14 00:26:50;;;;;;;0.10;0.10;;;;;;;;;;4995973;28;20053;-78
2022/07/14 00:29:16;;;;;;;0.10;0.10;;;;;;;;;;4995386;28;20130;-78
2022/07/14 00:31:43;;;;;;;0.10;0.10;;;;;;;;;;4995945;28;20046;-77
2022/07/14 00:34:09;;;;;;;0.00;0.00;;;;;;;;;;4994933;28;20050;-78
2022/07/14 00:36:35;;;;;;;0.10;0.10;;;;;;;;;;4995573;28;20097;-77
2022/07/14 00:39:01;;;;;;;0.10;0.10;;;;;;;;;;4977802;28;20050;-78
2022/07/14 00:41:27;;;;;;;0.00;0.00;;;;;;;;;;4995804;28;20046;-77
2022/07/14 00:43:53;;;;;;;0.10;0.10;;;;;;;;;;4995504;28;20054;-78
2022/07/14 00:46:20;;;;;;;0.10;0.10;;;;;;;;;;4994587;28;20588;-78
2022/07/14 00:48:47;;;;;;;0.10;0.10;;;;;;;;;;4977985;28;20039;-77
2022/07/14 00:51:13;;;;;;;0.10;0.10;;;;;;;;;;4978062;28;20116;-78
2022/07/14 00:53:40;;;;;;;0.10;0.10;;;;;;;;;;4995431;28;20096;-77
2022/07/14 00:56:06;;;;;;;0.00;0.00;;;;;;;;;;4995035;28;20081;-78
2022/07/14 00:58:32;;;;;;;0.10;0.10;;;;;;;;;;4994997;28;20042;-77
2022/07/14 01:00:58;;;;;;;0.10;0.10;;;;;;;;;;4995192;28;20161;-78
2022/07/14 01:03:24;;;;;;;0.10;0.10;;;;;;;;;;4978225;28;20470;-78
2022/07/14 01:05:50;;;;;;;0.10;0.10;;;;;;;;;;4994887;28;20054;-78
2022/07/14 01:08:16;;;;;;;0.10;0.10;;;;;;;;;;4994231;28;20096;-77
2022/07/14 01:10:43;;;;;;;0.10;0.10;;;;;;;;;;4994612;28;20152;-77
2022/07/14 01:13:09;;;;;;;0.10;0.10;;;;;;;;;;4994685;28;20046;-78
2022/07/14 01:15:35;;;;;;;0.10;0.10;;;;;;;;;;4994912;28;20050;-77
2022/07/14 01:18:03;;;;;;;0.10;0.10;;;;;;;;;;4994410;28;20042;-79
2022/07/14 01:20:29;;;;;;;0.10;0.10;;;;;;;;;;4977218;28;20121;-78
2022/07/14 01:22:56;;;;;;;0.10;0.10;;;;;;;;;;4977665;28;20093;-78
2022/07/14 01:25:22;;;;;;;0.10;0.10;;;;;;;;;;4977285;28;20145;-78
2022/07/14 01:27:49;;;;;;;0.10;0.10;;;;;;;;;;4994277;28;20050;-78
2022/07/14 01:30:15;;;;;;;0.10;0.10;;;;;;;;;;4994526;28;20053;-77
2022/07/14 01:32:41;;;;;;;0.10;0.10;;;;;;;;;;4994788;28;20050;-77
2022/07/14 01:35:08;;;;;;;0.10;0.10;;;;;;;;;;4994167;28;20098;-78
2022/07/14 01:37:34;;;;;;;0.10;0.10;;;;;;;;;;4994030;28;20515;-77
2022/07/14 01:40:00;;;;;;;0.10;0.10;;;;;;;;;;4994139;28;20540;-78
2022/07/14 01:42:27;;;;;;;0.10;0.10;;;;;;;;;;4977072;28;20045;-78
2022/07/14 01:44:53;;;;;;;0.00;0.00;;;;;;;;;;4994398;28;20113;-78
2022/07/14 01:47:19;;;;;;;0.10;0.10;;;;;;;;;;4993967;28;20086;-78
2022/07/14 01:49:45;;;;;;;0.10;0.10;;;;;;;;;;4977061;28;20057;-78
2022/07/14 01:52:11;;;;;;;0.00;0.00;;;;;;;;;;4976923;28;20065;-78
2022/07/14 01:54:37;;;;;;;0.10;0.10;;;;;;;;;;4994147;28;20046;-77
2022/07/14 01:57:06;;;;;;;0.10;0.10;;;;;;;;;;4994009;28;20053;-79
2022/07/14 01:59:32;;;;;;;0.10;0.10;;;;;;;;;;4993856;28;20508;-78
2022/07/14 02:01:58;;;;;;;0.10;0.10;;;;;;;;;;4976916;28;20473;-77
2022/07/14 02:04:24;;;;;;;0.10;0.10;;;;;;;;;;4993789;28;20200;-78
2022/07/14 02:06:51;;;;;;;0.10;0.10;;;;;;;;;;4994018;28;20437;-78
2022/07/14 02:09:18;;;;;;;0.00;0.00;;;;;;;;;;4993312;28;20070;-78
2022/07/14 02:14:29;;;;;;;0.10;0.10;;;;;;;;;;4993177;28;20077;-78
2022/07/14 02:16:55;;;;;;;0.10;0.10;;;;;;;;;;4993840;28;20050;-78
2022/07/14 02:19:23;;;;;;;0.10;0.10;;;;;;;;;;4993438;28;20046;-77
2022/07/14 02:21:50;;;;;;;0.00;0.00;;;;;;;;;;4990747;28;20129;-77
2022/07/14 02:24:16;;;;;;;0.10;0.10;;;;;;;;;;4959698;28;20134;-78
2022/07/14 02:26:42;;;;;;;0.10;0.10;;;;;;;;;;4993678;28;20042;-77
2022/07/14 02:29:08;;;;;;;0.10;0.10;;;;;;;;;;4993122;28;20050;-78
2022/07/14 02:31:35;;;;;;;0.30;0.30;;;;;;;;;;4976422;28;20125;-78
2022/07/14 02:34:02;;;;;;;0.10;0.10;;;;;;;;;;4993492;28;20047;-77
2022/07/14 02:36:28;;;;;;;0.00;0.00;;;;;;;;;;4976294;28;20046;-78
2022/07/14 02:38:54;;;;;;;0.10;0.10;;;;;;;;;;4992357;28;20046;-78
2022/07/14 02:41:20;;;;;;;0.10;0.10;;;;;;;;;;4993258;28;20112;-78
2022/07/14 02:43:46;;;;;;;0.10;0.10;;;;;;;;;;4993524;28;20054;-77
2022/07/14 02:46:13;;;;;;;0.00;0.00;;;;;;;;;;4993046;28;20042;-77
2022/07/14 02:48:39;;;;;;;0.10;0.10;;;;;;;;;;4993575;28;20466;-77
2022/07/14 02:51:06;;;;;;;0.10;0.10;;;;;;;;;;4992805;28;20485;-77
2022/07/14 02:53:34;;;;;;;0.03;0.03;;;;;;;;;;4993082;28;20057;-78
2022/07/14 02:56:00;;;;;;;0.10;0.10;;;;;;;;;;4993120;28;20116;-77
2022/07/14 02:58:26;;;;;;;0.10;0.10;;;;;;;;;;4992770;28;20544;-77
2022/07/14 03:00:53;;;;;;;0.10;0.10;;;;;;;;;;4993201;28;20478;-77
2022/07/14 03:03:20;;;;;;;0.10;0.10;;;;;;;;;;4992907;28;20057;-77
2022/07/14 03:05:46;;;;;;;0.10;0.10;;;;;;;;;;4993459;28;20537;-77
2022/07/14 03:08:12;;;;;;;0.10;0.10;;;;;;;;;;4992680;28;20046;-78
2022/07/14 03:10:38;;;;;;;0.10;0.10;;;;;;;;;;4975576;28;20061;-78
2022/07/14 03:13:05;;;;;;;0.10;0.10;;;;;;;;;;4975807;28;20062;-77
2022/07/14 03:15:31;;;;;;;0.10;0.10;;;;;;;;;;4992886;28;20340;-77
2022/07/14 03:17:57;;;;;;;0.00;0.00;;;;;;;;;;4975237;28;20097;-78
2022/07/14 03:20:23;;;;;;;0.10;0.10;;;;;;;;;;4992783;28;20047;-78
2022/07/14 03:22:49;;;;;;;0.13;0.13;;;;;;;;;;4975445;28;20046;-77
2022/07/14 03:25:15;;;;;;;0.10;0.10;;;;;;;;;;4992440;28;20047;-78
2022/07/14 03:27:41;;;;;;;0.30;0.30;;;;;;;;;;4992969;28;20048;-78
2022/07/14 03:30:08;;;;;;;0.13;0.13;;;;;;;;;;4993007;28;20168;-78
2022/07/14 03:32:35;;;;;;;9.07;1.45;;;;;;;;;;4992358;28;20564;-78
2022/07/14 03:35:03;;;;;;;0.10;0.10;;;;;;;;;;4992809;28;20397;-78
2022/07/14 03:37:29;;;;;;;0.00;0.00;;;;;;;;;;4992452;28;20042;-78
2022/07/14 03:39:55;;;;;;;0.00;0.00;;;;;;;;;;4975745;28;20046;-78
2022/07/14 03:42:22;;;;;;;0.00;0.00;;;;;;;;;;4992712;28;20046;-78
2022/07/14 03:44:48;;;;;;;0.10;0.10;;;;;;;;;;4992789;28;20051;-78
2022/07/14 03:47:15;;;;;;;0.10;0.10;;;;;;;;;;4992186;28;20445;-78
2022/07/14 03:49:41;;;;;;;0.10;0.10;;;;;;;;;;4993661;28;20485;-78
2022/07/14 03:52:07;;;;;;;0.10;0.10;;;;;;;;;;4996593;28;20046;-78
2022/07/14 03:54:33;;;;;;;0.10;0.10;;;;;;;;;;4995964;28;20050;-79
2022/07/14 03:57:00;;;;;;;0.10;0.10;;;;;;;;;;4978994;28;20496;-78
2022/07/14 03:59:26;;;;;;;0.10;0.10;;;;;;;;;;4978792;28;20432;-79
2022/07/14 04:01:52;;;;;;;0.10;0.10;;;;;;;;;;4996098;28;20452;-79
2022/07/14 04:04:18;;;;;;;0.00;0.00;;;;;;;;;;4995883;28;20050;-79
2022/07/14 04:06:44;;;;;;;0.10;0.10;;;;;;;;;;4996203;28;20054;-79
2022/07/14 04:09:10;;;;;;;0.10;0.10;;;;;;;;;;4978671;28;20054;-79
2022/07/14 04:11:36;;;;;;;0.10;0.10;;;;;;;;;;4995711;28;20133;-79
2022/07/14 04:14:02;;;;;;;0.10;0.10;;;;;;;;;;4996124;28;20054;-78
2022/07/14 04:16:29;;;;;;;0.00;0.00;;;;;;;;;;4995860;28;20042;-79
2022/07/14 04:18:55;;;;;;;0.10;0.10;;;;;;;;;;4995775;28;20440;-78
2022/07/14 04:21:21;;;;;;;0.10;0.10;;;;;;;;;;4995435;28;20046;-79
2022/07/14 04:23:47;;;;;;;0.10;0.10;;;;;;;;;;4962592;28;20074;-79
2022/07/14 04:26:13;;;;;;;0.10;0.10;;;;;;;;;;4995788;28;20056;-78
2022/07/14 04:28:39;;;;;;;0.10;0.10;;;;;;;;;;4995410;28;20089;-78
2022/07/14 04:31:08;;;;;;;0.10;0.10;;;;;;;;;;4995740;28;20104;-79
2022/07/14 04:33:34;;;;;;;0.10;0.10;;;;;;;;;;4995422;28;20501;-79
2022/07/14 04:36:00;;;;;;;0.10;0.10;;;;;;;;;;4995577;28;20078;-78
2022/07/14 04:38:26;;;;;;;0.10;0.10;;;;;;;;;;4995110;28;20063;-79
2022/07/14 04:40:52;;;;;;;0.10;0.10;;;;;;;;;;4995540;28;20053;-78
2022/07/14 04:43:19;;;;;;;0.10;0.10;;;;;;;;;;4995241;28;20086;-79
2022/07/14 04:45:45;;;;;;;0.10;0.10;;;;;;;;;;4995688;28;20046;-78
2022/07/14 04:48:11;;;;;;;0.10;0.10;;;;;;;;;;4995059;28;20053;-78
2022/07/14 04:53:22;;;;;;;0.10;0.10;;;;;;;;;;4994975;28;20054;-79
2022/07/14 04:55:48;;;;;;;0.10;0.10;;;;;;;;;;4995181;28;20115;-79
2022/07/14 04:58:14;;;;;;;0.10;0.10;;;;;;;;;;4995286;28;20050;-79
2022/07/14 05:00:40;;;;;;;0.10;0.10;;;;;;;;;;4977542;28;20050;-78
2022/07/14 05:03:06;;;;;;;0.10;0.10;;;;;;;;;;4994531;28;20162;-78
2022/07/14 05:05:32;;;;;;;0.10;0.10;;;;;;;;;;4977439;28;20046;-79
2022/07/14 05:07:58;;;;;;;0.10;0.10;;;;;;;;;;4994824;28;20038;-79
2022/07/14 05:10:24;;;;;;;0.10;0.10;;;;;;;;;;4994546;28;20057;-79
2022/07/14 05:12:50;;;;;;;0.10;0.10;;;;;;;;;;4994839;28;20054;-79
2022/07/14 05:15:17;;;;;;;0.10;0.10;;;;;;;;;;4994998;28;20051;-79
2022/07/14 05:17:44;;;;;;;0.10;0.10;;;;;;;;;;4977310;28;20469;-79
2022/07/14 05:20:11;;;;;;;0.10;0.10;;;;;;;;;;4994876;28;20050;-77
2022/07/14 05:22:38;;;;;;;0.10;0.10;;;;;;;;;;4993838;28;20489;-78
2022/07/14 05:25:11;;;;;;;0.10;0.10;;;;;;;;;;4994764;28;20046;-77
2022/07/14 05:27:38;;;;;;;0.10;0.10;;;;;;;;;;4994322;28;20043;-78
2022/07/14 05:30:05;;;;;;;0.10;0.10;;;;;;;;;;4994128;28;20494;-78
2022/07/14 05:32:31;;;;;;;0.22;0.22;;;;;;;;;;4994156;28;20477;-77
2022/07/14 05:34:58;;;;;;;0.10;0.10;;;;;;;;;;4994613;28;20120;-76
2022/07/14 05:37:24;;;;;;;0.10;0.10;;;;;;;;;;4994125;28;20105;-80
2022/07/14 05:39:51;;;;;;;0.10;0.10;;;;;;;;;;4994484;28;20133;-78
2022/07/14 05:42:19;;;;;;;1.30;0.63;;;;;;;;;;4994365;28;20054;-77
2022/07/14 05:44:45;;;;;;;0.10;0.10;;;;;;;;;;4960804;28;20130;-76
2022/07/14 05:47:11;;;;;;;0.10;0.10;;;;;;;;;;4994092;28;20050;-78
2022/07/14 05:49:41;;;;;;;0.10;0.10;;;;;;;;;;4994059;28;20100;-78
2022/07/14 05:52:07;;;;;;;0.10;0.10;;;;;;;;;;4994123;28;20050;-77
2022/07/14 05:54:34;;;;;;;0.10;0.10;;;;;;;;;;4992754;28;20410;-78
2022/07/14 05:57:00;;;;;;;0.10;0.10;;;;;;;;;;4992729;28;20940;-78
2022/07/14 05:59:26;;;;;;;0.10;0.10;;;;;;;;;;4992756;28;20485;-79
2022/07/14 06:01:52;;;;;;;0.15;0.15;;;;;;;;;;4992916;28;20553;-79
2022/07/14 06:04:18;;;;;;;0.30;0.30;;;;;;;;;;4975672;28;20467;-80
2022/07/14 06:06:47;;;;;;;0.00;0.00;;;;;;;;;;4992483;28;20490;-78
2022/07/14 06:09:14;;;;;;;0.10;0.10;;;;;;;;;;4975622;28;20418;-77
2022/07/14 06:11:41;;;;;;;0.10;0.10;;;;;;;;;;4992357;28;20457;-77
2022/07/14 06:14:07;;;;;;;0.10;0.10;;;;;;;;;;4991646;28;20819;-81
2022/07/14 06:16:34;;;;;;;0.10;0.10;;;;;;;;;;4992224;28;20853;-78
2022/07/14 06:19:00;;;;;;;0.10;0.10;;;;;;;;;;4975128;28;20901;-78
2022/07/14 06:21:26;;;;;;;0.10;0.10;;;;;;;;;;4975510;28;20984;-80
2022/07/14 06:23:52;;;;;;;0.00;0.00;;;;;;;;;;4992076;28;20399;-81
2022/07/14 06:26:18;;;;;;;0.10;0.10;;;;;;;;;;4975403;28;20427;-73
2022/07/14 06:28:46;;;;;;;0.10;0.10;;;;;;;;;;4991849;28;20410;-76
2022/07/14 06:31:13;;;;;;;0.10;0.10;;;;;;;;;;4992127;28;20979;-75
2022/07/14 06:33:39;;;;;;;0.10;0.10;;;;;;;;;;4992631;28;20410;-76
2022/07/14 06:36:06;;;;;;;0.10;0.10;;;;;;;;;;4992417;28;20877;-76
2022/07/14 06:38:32;;;;;;;0.10;0.10;;;;;;;;;;4974597;28;21053;-79
2022/07/14 06:40:58;;;;;;;0.10;0.10;;;;;;;;;;4992048;28;20405;-74
2022/07/14 06:43:24;;;;;;;0.10;0.10;;;;;;;;;;4992331;28;20417;-76
2022/07/14 06:45:51;;;;;;;0.10;0.10;;;;;;;;;;4974789;28;20407;-79
2022/07/14 06:48:17;;;;;;;0.10;0.10;;;;;;;;;;4992272;28;20904;-75
2022/07/14 06:50:44;;;;;;;0.10;0.10;;;;;;;;;;4974541;28;20406;-80
2022/07/14 06:53:10;;;;;;;0.10;0.10;;;;;;;;;;4975044;28;20743;-79
2022/07/14 06:55:36;;;;;;;0.10;0.10;;;;;;;;;;4974445;28;20429;-77
2022/07/14 06:58:02;;;;;;;0.10;0.10;;;;;;;;;;4991794;28;20430;-77
2022/07/14 07:00:28;;;;;;;0.10;0.10;;;;;;;;;;4974428;28;20410;-78
2022/07/14 07:02:54;;;;;;;0.08;0.08;;;;;;;;;;4991610;28;20493;-79
2022/07/14 07:08:06;;;;;;;0.10;0.10;;;;;;;;;;4991949;28;20399;-76
2022/07/14 07:10:40;;;;;;;0.10;0.10;;;;;;;;;;4974294;28;20513;-78
2022/07/14 07:13:06;;;;;;;0.10;0.10;;;;;;;;;;4992382;28;20469;-78
2022/07/14 07:15:32;;;;;;;0.10;0.10;;;;;;;;;;4992133;28;20461;-76
2022/07/14 07:17:59;;;;;;;0.10;0.10;;;;;;;;;;4991551;28;20438;-77
2022/07/14 07:20:25;;;;;;;0.10;0.10;;;;;;;;;;4991586;28;20893;-79
2022/07/14 07:22:51;;;;;;;0.10;0.10;;;;;;;;;;4991765;28;20770;-76
2022/07/14 07:25:17;;;;;;;0.10;0.10;;;;;;;;;;4993616;28;20900;-77
2022/07/14 07:27:43;;;;;;;0.10;0.10;;;;;;;;;;4995087;28;20896;-78
2022/07/14 07:30:10;;;;;;;0.10;0.10;;;;;;;;;;4995647;28;20402;-77
2022/07/14 07:32:36;;;;;;;0.10;0.10;;;;;;;;;;4995620;28;20758;-76
2022/07/14 07:35:03;;;;;;;0.10;0.10;;;;;;;;;;4995664;28;20413;-73
2022/07/14 07:37:29;;;;;;;0.20;0.20;;;;;;;;;;4995392;28;20426;-75
2022/07/14 07:39:57;;;;;;;0.10;0.10;;;;;;;;;;4978312;28;21081;-82
2022/07/14 07:42:25;;;;;;;0.10;0.10;;;;;;;;;;4978984;28;20503;-88
2022/07/14 07:44:51;;;;;;;0.10;0.10;;;;;;;;;;4961991;28;20488;-90
2022/07/14 07:47:17;;;;;;;0.10;0.10;;;;;;;;;;4995403;28;20526;-80
2022/07/14 07:49:43;;;;;;;0.10;0.10;;;;;;;;;;4995260;28;20414;-80
2022/07/14 07:52:10;;;;;;;0.60;0.60;;;;;;;;;;4995435;28;20411;-80
2022/07/14 07:54:36;;;;;;;0.10;0.10;;;;;;;;;;4995553;28;20805;-80
2022/07/14 07:57:02;;;;;;;0.10;0.10;;;;;;;;;;4995291;28;20445;-81
2022/07/14 07:59:28;;;;;;;0.10;0.10;;;;;;;;;;4995167;28;20410;-78
2022/07/14 08:01:54;;;;;;;0.10;0.10;;;;;;;;;;4977667;28;20909;-80
2022/07/14 08:04:20;;;;;;;0.10;0.10;;;;;;;;;;4995459;28;20414;-80
2022/07/14 08:06:47;;;;;;;0.10;0.10;;;;;;;;;;4977343;28;20437;-81
2022/07/14 08:09:13;;;;;;;0.10;0.10;;;;;;;;;;4994986;28;20494;-80
2022/07/14 08:11:40;;;;;;;0.10;0.10;;;;;;;;;;4977394;28;20414;-80
2022/07/14 08:14:47;;;;;;;0.10;0.10;;;;;;;;;;4994966;28;20908;-80
2022/07/14 08:16:53;;;;;;;0.10;0.10;;;;;;;;;;4977313;28;20921;-80
2022/07/14 08:19:19;;;;;;;0.10;0.10;;;;;;;;;;4977434;28;20431;-81
2022/07/14 08:21:45;;;;;;;0.10;0.10;;;;;;;;;;4994527;28;20410;-80
2022/07/14 08:24:11;;;;;;;0.10;0.10;;;;;;;;;;4994753;28;20434;-80
2022/07/14 08:26:37;;;;;;;0.10;0.10;;;;;;;;;;4977673;28;20757;-81
2022/07/14 08:29:04;;;;;;;0.10;0.10;;;;;;;;;;4994002;28;20905;-81
2022/07/14 08:31:30;;;;;;;0.30;0.30;;;;;;;;;;4994803;28;20411;-81
2022/07/14 08:33:56;;;;;;;0.10;0.10;;;;;;;;;;4994477;28;20410;-81
2022/07/14 08:36:22;;;;;;;0.10;0.10;;;;;;;;;;4976300;28;20417;-81
2022/07/14 08:38:48;;;;;;;0.10;0.10;;;;;;;;;;4994056;28;20517;-81
2022/07/14 08:41:15;;;;;;;0.10;0.10;;;;;;;;;;4994467;28;20450;-81
2022/07/14 08:43:41;;;;;;;0.10;0.10;;;;;;;;;;4994614;28;20414;-81
2022/07/14 08:46:07;;;;;;;0.10;0.10;;;;;;;;;;4994563;28;20901;-81
2022/07/14 08:48:34;;;;;;;0.10;0.10;;;;;;;;;;4994310;28;20409;-81
2022/07/14 08:51:00;;;;;;;0.10;0.10;;;;;;;;;;4993902;28;20487;-81
2022/07/14 08:53:27;;;;;;;0.10;0.10;;;;;;;;;;4977137;28;20419;-81
2022/07/14 08:55:53;;;;;;;0.10;0.10;;;;;;;;;;4993702;28;20413;-81
2022/07/14 08:58:19;;;;;;;0.10;0.10;;;;;;;;;;4994191;28;20426;-81
2022/07/14 09:00:45;;;;;;;0.10;0.10;;;;;;;;;;4976590;28;20476;-81
2022/07/14 09:03:11;;;;;;;0.10;0.10;;;;;;;;;;4994335;28;20410;-81
2022/07/14 09:05:41;;;;;;;0.10;0.10;;;;;;;;;;4994223;28;20413;-82
2022/07/14 09:08:07;;;;;;;0.10;0.10;;;;;;;;;;4993423;28;21045;-81
2022/07/14 09:10:34;;;;;;;0.10;0.10;;;;;;;;;;4994143;28;20411;-82
2022/07/14 09:13:13;;;;;;;0.10;0.10;;;;;;;;;;4993547;28;20421;-79
2022/07/14 09:15:45;;;;;;;0.10;0.10;;;;;;;;;;4994075;28;20445;-79
2022/07/14 09:18:22;;;;;;;0.10;0.10;;;;;;;;;;4993348;28;20442;-79
2022/07/14 09:20:48;;;;;;;0.10;0.10;;;;;;;;;;4993514;28;20438;-79
2022/07/14 09:23:14;;;;;;;0.10;0.10;;;;;;;;;;4993720;28;20410;-79
2022/07/14 09:25:40;;;;;;;0.10;0.10;;;;;;;;;;4993422;28;20901;-79
2022/07/14 09:28:07;;;;;;;0.10;0.10;;;;;;;;;;4993104;28;20414;-78
2022/07/14 09:30:33;;;;;;;0.10;0.10;;;;;;;;;;4976336;28;20885;-80
2022/07/14 09:33:00;;;;;;;0.10;0.10;;;;;;;;;;4975750;28;20529;-80
2022/07/14 09:35:47;;;;;;;0.10;0.10;;;;;;;;;;4993474;28;20410;-79
2022/07/14 09:38:18;;;;;;;0.10;0.10;;;;;;;;;;4993425;28;20996;-79
2022/07/14 09:40:44;;;;;;;0.10;0.10;;;;;;;;;;4993485;28;20499;-79
2022/07/14 09:43:13;;;;;;;0.10;0.10;;;;;;;;;;4993471;28;20418;-80
2022/07/14 09:45:40;;;;;;;0.10;0.10;;;;;;;;;;4993525;28;20410;-79
2022/07/14 09:48:11;;;;;;;0.10;0.10;;;;;;;;;;4975253;28;20402;-79
2022/07/14 09:50:47;;;;;;;0.10;0.10;;;;;;;;;;4992951;28;20426;-79
2022/07/14 09:53:29;;;;;;;0.10;0.10;;;;;;;;;;4993249;28;20485;-80
2022/07/14 09:55:56;;;;;;;0.10;0.10;;;;;;;;;;4992978;28;20410;-80
2022/07/14 09:58:24;;;;;;;0.10;0.10;;;;;;;;;;4992917;28;20441;-79
2022/07/14 10:00:54;;;;;;;0.10;0.10;;;;;;;;;;4992785;28;20413;-79
2022/07/14 10:03:21;;;;;;;0.10;0.10;;;;;;;;;;4975597;28;20419;-79
2022/07/14 10:05:49;;;;;;;0.10;0.10;;;;;;;;;;4992770;28;20410;-79
2022/07/14 10:08:16;;;;;;;0.10;0.10;;;;;;;;;;4992523;28;20407;-80
2022/07/14 10:10:42;;;;;;;0.10;0.10;;;;;;;;;;4992214;28;20914;-80
2022/07/14 10:13:08;;;;;;;0.10;0.10;;;;;;;;;;4992464;28;20702;-80
2022/07/14 10:15:35;;;;;;;0.10;0.10;;;;;;;;;;4992917;28;20407;-79
2022/07/14 10:18:02;;;;;;;0.10;0.10;;;;;;;;;;4992334;28;20431;-80
2022/07/14 10:20:29;;;;;;;0.10;0.10;;;;;;;;;;4993046;28;20806;-80
2022/07/14 10:22:56;;;;;;;0.10;0.10;;;;;;;;;;4992333;28;20407;-80
2022/07/14 10:25:22;;;;;;;0.00;0.00;;;;;;;;;;4992941;28;20465;-81
2022/07/14 10:27:49;;;;;;;0.10;0.10;;;;;;;;;;4992619;28;20398;-80
2022/07/14 10:30:15;;;;;;;0.10;0.10;;;;;;;;;;4992295;28;20410;-80
2022/07/14 10:32:54;;;;;;;0.10;0.10;;;;;;;;;;4992628;28;20406;-79
2022/07/14 10:35:26;;;;;;;0.05;0.05;;;;;;;;;;4992825;28;20402;-80
2022/07/14 10:38:11;;;;;;;0.08;0.08;;;;;;;;;;4992053;28;20466;-80
2022/07/14 10:40:40;;;;;;;0.10;0.10;;;;;;;;;;4992372;28;20407;-80
2022/07/14 10:43:17;;;;;;;0.10;0.10;;;;;;;;;;4991951;28;20433;-80
2022/07/14 10:45:47;;;;;;;0.05;0.05;;;;;;;;;;4992403;28;20410;-80
2022/07/14 10:48:27;;;;;;;0.10;0.10;;;;;;;;;;4992068;28;20406;-80
2022/07/14 10:51:13;;;;;;;0.10;0.10;;;;;;;;;;4975007;28;20430;-80
2022/07/14 10:53:57;;;;;;;0.20;0.20;;;;;;;;;;4991907;28;20472;-79
2022/07/14 10:56:27;;;;;;;0.10;0.10;;;;;;;;;;4992269;28;20505;-80
2022/07/14 10:59:11;;;;;;;0.10;0.10;;;;;;;;;;4991488;28;20426;-79
2022/07/14 11:01:37;;;;;;;0.10;0.10;;;;;;;;;;4991957;28;20438;-80
2022/07/14 11:04:03;;;;;;;0.10;0.10;;;;;;;;;;4974981;28;20454;-80
2022/07/14 11:06:29;;;;;;;0.10;0.10;;;;;;;;;;4992106;28;20402;-80
2022/07/14 11:09:14;;;;;;;0.10;0.10;;;;;;;;;;4974724;28;20422;-80
2022/07/14 11:12:00;;;;;;;0.10;0.10;;;;;;;;;;4992230;28;20419;-80
2022/07/14 11:14:26;;;;;;;0.10;0.10;;;;;;;;;;4991908;28;20414;-80
2022/07/14 11:16:53;;;;;;;0.10;0.10;;;;;;;;;;4958755;28;20458;-80
2022/07/14 11:19:24;;;;;;;0.10;0.10;;;;;;;;;;4974613;28;20437;-80
2022/07/14 11:22:24;;;;;;;0.10;0.10;;;;;;;;;;4991675;28;20577;-80
2022/07/14 11:24:52;;;;;;;0.10;0.10;;;;;;;;;;4949799;28;20743;-80
2022/07/14 11:27:27;;;;;;;0.10;0.10;;;;;;;;;;4991677;28;20422;-80
2022/07/14 11:29:56;;;;;;;0.10;0.10;;;;;;;;;;4991826;28;20410;-80
2022/07/14 11:32:33;;;;;;;0.10;0.10;;;;;;;;;;4991975;28;20900;-80
2022/07/14 11:38:01;;;;;;;0.17;0.17;;;;;;;;;;4992029;28;20461;-80
2022/07/14 11:40:45;;;;;;;0.10;0.10;;;;;;;;;;4991885;28;20410;-80
2022/07/14 11:43:36;;;;;;;0.10;0.10;;;;;;;;;;4991700;28;20417;-80
2022/07/14 11:46:04;;;;;;;0.10;0.10;;;;;;;;;;4982293;28;20942;-80
2022/07/14 11:48:31;;;;;;;0.10;0.10;;;;;;;;;;4991883;28;20438;-80
2022/07/14 11:51:01;;;;;;;0.20;0.20;;;;;;;;;;4991465;28;20442;-80
2022/07/14 11:53:29;;;;;;;0.10;0.10;;;;;;;;;;4991713;28;20410;-80
2022/07/14 11:55:55;;;;;;;0.10;0.10;;;;;;;;;;4991633;28;20407;-80
2022/07/14 11:58:24;;;;;;;0.10;0.10;;;;;;;;;;4991394;28;20434;-81
2022/07/14 12:00:55;;;;;;;0.00;0.00;;;;;;;;;;4991730;28;20402;-80
2022/07/14 12:03:21;;;;;;;0.10;0.10;;;;;;;;;;4990766;28;20414;-77
2022/07/14 12:05:51;;;;;;;0.10;0.10;;;;;;;;;;4990918;28;20473;-78
2022/07/14 12:08:22;;;;;;;0.10;0.10;;;;;;;;;;4991205;28;20398;-77
2022/07/14 12:10:49;;;;;;;0.10;0.10;;;;;;;;;;4992221;28;20425;-78
2022/07/14 12:13:16;;;;;;;0.10;0.10;;;;;;;;;;4994695;28;20406;-78
2022/07/14 12:15:42;;;;;;;0.10;0.10;;;;;;;;;;4977766;28;20406;-77
2022/07/14 12:18:09;;;;;;;0.10;0.10;;;;;;;;;;4994599;28;20445;-78
2022/07/14 12:20:46;;;;;;;0.10;0.10;;;;;;;;;;4994938;28;20765;-77
2022/07/14 12:23:13;;;;;;;0.10;0.10;;;;;;;;;;4994402;28;20446;-75
2022/07/14 12:25:40;;;;;;;0.05;0.05;;;;;;;;;;4994696;28;20413;-78
2022/07/14 12:28:08;;;;;;;0.10;0.10;;;;;;;;;;4994428;28;20757;-78
2022/07/14 12:30:46;;;;;;;0.20;0.20;;;;;;;;;;4994427;28;20980;-77
2022/07/14 12:33:13;;;;;;;0.20;0.20;;;;;;;;;;4994056;28;20948;-78
2022/07/14 12:35:44;;;;;;;0.20;0.20;;;;;;;;;;4994648;28;20406;-77
2022/07/14 12:38:14;;;;;;;0.10;0.10;;;;;;;;;;4994266;28;20439;-77
2022/07/14 12:40:40;;;;;;;0.10;0.10;;;;;;;;;;4994596;28;20407;-75
2022/07/14 12:43:08;;;;;;;0.10;0.10;;;;;;;;;;4994075;28;20417;-77
2022/07/14 12:45:59;;;;;;;0.10;0.10;;;;;;;;;;4994438;28;20901;-77
2022/07/14 12:48:25;;;;;;;0.10;0.10;;;;;;;;;;4984777;28;20407;-78
2022/07/14 12:50:51;;;;;;;0.10;0.10;;;;;;;;;;4994310;28;20411;-78
2022/07/14 12:53:18;;;;;;;0.10;0.10;;;;;;;;;;4993981;28;20516;-78
2022/07/14 12:55:48;;;;;;;0.10;0.10;;;;;;;;;;4994397;28;20857;-78
2022/07/14 12:58:15;;;;;;;0.30;0.30;;;;;;;;;;4993991;28;20493;-79
2022/07/14 13:00:44;;;;;;;0.10;0.10;;;;;;;;;;4994344;28;20498;-77
2022/07/14 13:03:10;;;;;;;0.10;0.10;;;;;;;;;;4993594;28;20450;-76
2022/07/14 13:05:37;;;;;;;0.10;0.10;;;;;;;;;;4993812;28;20497;-76
2022/07/14 13:08:24;;;;;;;0.10;0.10;;;;;;;;;;4993095;28;20773;-80
2022/07/14 13:10:59;;;;;;;0.40;0.30;;;;;;;;;;4980088;28;20466;-77
2022/07/14 13:13:34;;;;;;;0.10;0.10;;;;;;;;;;4993516;28;20403;-77
2022/07/14 13:16:18;;;;;;;0.30;0.20;;;;;;;;;;4993411;28;20399;-77
2022/07/14 13:19:04;;;;;;;0.10;0.10;;;;;;;;;;4993574;28;20773;-77
2022/07/14 13:21:49;;;;;;;0.10;0.10;;;;;;;;;;4993957;28;20446;-77
2022/07/14 13:24:35;;;;;;;0.10;0.10;;;;;;;;;;4993139;28;20418;-76
2022/07/14 13:27:03;;;;;;;0.10;0.10;;;;;;;;;;4963224;28;20739;-78
2022/07/14 13:29:30;;;;;;;0.40;0.30;;;;;;;;;;4993164;28;20874;-77
2022/07/14 13:31:57;;;;;;;0.10;0.10;;;;;;;;;;4993106;28;20415;-77
2022/07/14 13:34:23;;;;;;;0.10;0.10;;;;;;;;;;4992884;28;20461;-77
2022/07/14 13:36:49;;;;;;;2.50;0.20;;;;;;;;;;4993395;28;20782;-78
2022/07/14 13:39:15;;;;;;;0.10;0.10;;;;;;;;;;4959240;28;20426;-77
2022/07/14 13:41:41;;;;;;;0.10;0.10;;;;;;;;;;4975365;28;20494;-77
2022/07/14 13:44:08;;;;;;;0.10;0.10;;;;;;;;;;4993075;28;20464;-78
2022/07/14 13:46:35;;;;;;;0.10;0.10;;;;;;;;;;4993536;28;20413;-77
2022/07/14 13:49:01;;;;;;;0.10;0.10;;;;;;;;;;4993293;28;20414;-77
2022/07/14 13:54:12;;;;;;;0.00;0.00;;;;;;;;;;4992841;28;20418;-77
2022/07/14 13:56:40;;;;;;;0.10;0.10;;;;;;;;;;4992776;28;20881;-77
2022/07/14 13:59:09;;;;;;;0.10;0.10;;;;;;;;;;4993128;28;20506;-76
2022/07/14 14:01:36;;;;;;;0.10;0.10;;;;;;;;;;4993139;28;20886;-77
2022/07/14 14:04:03;;;;;;;0.10;0.10;;;;;;;;;;4992931;28;20457;-77
2022/07/14 14:06:29;;;;;;;0.10;0.10;;;;;;;;;;4992456;28;20494;-77
2022/07/14 14:08:55;;;;;;;0.10;0.10;;;;;;;;;;4992758;28;20410;-77
2022/07/14 14:11:22;;;;;;;0.80;0.30;;;;;;;;;;4992084;28;20423;-77
2022/07/14 14:13:48;;;;;;;0.10;0.10;;;;;;;;;;4992781;28;20410;-78
2022/07/14 14:16:14;;;;;;;0.10;0.10;;;;;;;;;;4991948;28;20402;-79
2022/07/14 14:18:40;;;;;;;0.10;0.10;;;;;;;;;;4975302;28;20839;-77
2022/07/14 14:21:07;;;;;;;0.20;0.20;;;;;;;;;;4975438;28;20893;-77
2022/07/14 14:23:34;;;;;;;0.10;0.10;;;;;;;;;;4974977;28;20410;-77
2022/07/14 14:26:01;;;;;;;0.10;0.10;;;;;;;;;;4992216;28;20417;-77
2022/07/14 14:28:27;;;;;;;0.10;0.10;;;;;;;;;;4991803;28;20852;-78
2022/07/14 14:30:53;;;;;;;1.00;0.60;;;;;;;;;;4974863;28;20774;-77
2022/07/14 14:33:19;;;;;;;1.50;0.30;;;;;;;;;;4991620;28;20406;-78
2022/07/14 14:35:45;;;;;;;0.10;0.10;;;;;;;;;;4992460;28;20457;-77
2022/07/14 14:38:12;;;;;;;0.10;0.10;;;;;;;;;;4974513;28;20430;-78
2022/07/14 14:40:39;;;;;;;0.10;0.10;;;;;;;;;;4992629;28;20403;-77
2022/07/14 14:43:12;;;;;;;0.10;0.10;;;;;;;;;;4992521;28;20810;-77
2022/07/14 14:45:42;;;;;;;0.20;0.20;;;;;;;;;;4992629;28;20410;-77
2022/07/14 14:48:08;;;;;;;0.10;0.10;;;;;;;;;;4992737;28;20406;-77
2022/07/14 14:50:35;;;;;;;0.10;0.10;;;;;;;;;;4991767;28;20429;-77
2022/07/14 14:53:01;;;;;;;0.10;0.10;;;;;;;;;;4991834;28;20417;-77
2022/07/14 14:55:28;;;;;;;0.10;0.10;;;;;;;;;;4991599;28;20794;-78
2022/07/14 14:57:54;;;;;;;0.10;0.10;;;;;;;;;;4991812;28;20477;-77
2022/07/14 15:00:20;;;;;;;0.10;0.10;;;;;;;;;;4991232;28;20947;-77